createdAt,value
2022-10-07T00:01:35.207Z,99280.78
2022-10-07T00:04:03.338Z,99276.56
2022-10-07T00:06:31.437Z,99280.78
2022-10-07T00:09:01.737Z,99278.22
2022-10-07T00:11:30.809Z,99267.03
2022-10-07T00:14:01.149Z,99268.81
2022-10-07T00:16:31.354Z,99272.22
2022-10-07T00:19:02.744Z,99274.81
2022-10-07T00:21:34.322Z,99273.94
2022-10-07T00:24:03.023Z,99273.94
2022-10-07T00:26:33.554Z,99268.81
2022-10-07T00:29:02.260Z,99248.25
2022-10-07T00:31:31.684Z,99267.06
2022-10-07T00:34:01.641Z,99246.66
2022-10-07T00:36:32.484Z,99250.94
2022-10-07T00:39:02.301Z,99252.63
2022-10-07T00:41:32.849Z,99248.38
2022-10-07T00:44:01.932Z,99251.81
2022-10-07T00:46:34.940Z,99244.94
2022-10-07T00:49:09.323Z,99246.56
2022-10-07T00:51:38.418Z,99249.97
2022-10-07T00:54:11.985Z,99237.97
2022-10-07T00:56:41.766Z,99237.09
2022-10-07T00:59:11.269Z,99240.50
2022-10-07T01:01:42.256Z,99239.63
2022-10-07T01:04:13.989Z,99231.13
2022-10-07T01:06:43.071Z,99225.13
2022-10-07T01:09:12.822Z,99229.34
2022-10-07T01:11:51.931Z,99229.34
2022-10-07T01:14:29.421Z,99225.91
2022-10-07T01:17:03.005Z,99226.66
2022-10-07T01:19:55.496Z,99218.13
2022-10-07T01:22:34.296Z,99219.88
2022-10-07T01:25:21.587Z,99233.50
2022-10-07T01:27:54.996Z,99213.00
2022-10-07T01:30:23.451Z,99219.84
2022-10-07T01:32:56.877Z,99208.72
2022-10-07T01:35:29.049Z,99199.31
2022-10-07T01:38:01.559Z,99183.06
2022-10-07T01:40:44.359Z,99199.38
2022-10-07T01:43:16.921Z,99184.13
2022-10-07T01:45:45.128Z,99188.31
2022-10-07T01:48:13.471Z,99173.81
2022-10-07T01:50:42.186Z,99170.47
2022-10-07T01:53:28.174Z,99159.31
2022-10-07T01:56:12.580Z,99175.50
2022-10-07T01:58:56.536Z,99158.44
2022-10-07T02:01:34.741Z,99153.28
2022-10-07T02:04:31.184Z,99149.06
2022-10-07T02:07:08.203Z,99155.00
2022-10-07T02:09:41.195Z,99162.66
2022-10-07T02:12:17.129Z,99153.31
2022-10-07T02:14:54.720Z,99161.84
2022-10-07T02:17:24.797Z,99156.72
2022-10-07T02:19:57.871Z,99158.44
2022-10-07T02:22:29.673Z,99147.28
2022-10-07T02:24:59.998Z,99149.84
2022-10-07T02:27:33.123Z,99150.72
2022-10-07T02:30:06.338Z,99153.34
2022-10-07T02:32:36.162Z,99145.66
2022-10-07T02:35:10.146Z,99156.75
2022-10-07T02:37:41.040Z,99153.31
2022-10-07T02:40:12.394Z,99143.13
2022-10-07T02:42:47.998Z,99143.13
2022-10-07T02:45:26.684Z,99139.69
2022-10-07T02:48:02.144Z,99131.16
2022-10-07T02:50:38.605Z,99133.75
2022-10-07T02:53:07.646Z,99140.53
2022-10-07T02:55:36.870Z,99136.31
2022-10-07T02:58:10.207Z,99119.97
2022-10-07T03:00:44.525Z,99131.00
2022-10-07T03:03:12.900Z,99135.25
2022-10-07T03:05:41.468Z,99126.75
2022-10-07T03:08:12.034Z,99123.25
2022-10-07T03:10:40.952Z,99126.66
2022-10-07T03:13:09.215Z,99123.19
2022-10-07T03:15:42.406Z,99116.31
2022-10-07T03:18:26.798Z,99112.91
2022-10-07T03:20:55.572Z,99113.75
2022-10-07T03:23:24.722Z,99112.91
2022-10-07T03:25:54.142Z,99106.09
2022-10-07T03:28:23.486Z,99110.38
2022-10-07T03:30:51.886Z,99100.16
2022-10-07T03:33:26.520Z,99106.13
2022-10-07T03:35:54.732Z,99106.19
2022-10-07T03:38:23.387Z,99107.03
2022-10-07T03:40:53.047Z,99096.78
2022-10-07T03:43:21.724Z,99096.81
2022-10-07T03:45:52.432Z,99097.66
2022-10-07T03:48:22.193Z,99101.06
2022-10-07T03:50:51.212Z,99105.34
2022-10-07T03:53:20.427Z,99093.41
2022-10-07T03:55:51.732Z,99105.41
2022-10-07T03:58:19.941Z,99089.13
2022-10-07T04:00:48.807Z,99092.53
2022-10-07T04:03:18.859Z,99095.03
2022-10-07T04:06:00.520Z,99101.88
2022-10-07T04:08:29.607Z,99088.19
2022-10-07T04:10:58.640Z,99096.69
2022-10-07T04:13:27.122Z,99084.78
2022-10-07T04:15:55.787Z,99081.41
2022-10-07T04:18:24.685Z,99081.38
2022-10-07T04:20:53.063Z,99060.94
2022-10-07T04:23:23.185Z,99070.38
2022-10-07T04:25:51.350Z,99060.94
2022-10-07T04:28:21.659Z,99065.88
2022-10-07T04:30:51.670Z,99060.78
2022-10-07T04:33:21.358Z,99067.63
2022-10-07T04:35:50.396Z,99060.09
2022-10-07T04:38:19.982Z,99058.34
2022-10-07T04:40:51.599Z,99050.69
2022-10-07T04:43:21.027Z,99057.63
2022-10-07T04:45:50.570Z,99052.50
2022-10-07T04:48:20.128Z,99049.06
2022-10-07T04:50:48.947Z,99052.47
2022-10-07T04:53:18.217Z,99040.56
2022-10-07T04:55:47.832Z,99043.09
2022-10-07T04:58:17.986Z,99037.25
2022-10-07T05:00:48.207Z,99040.59
2022-10-07T05:03:18.793Z,99038.91
2022-10-07T05:05:48.172Z,99036.34
2022-10-07T05:08:18.686Z,99042.38
2022-10-07T05:10:46.862Z,99045.78
2022-10-07T05:13:18.212Z,99039.88
2022-10-07T05:15:50.763Z,99046.69
2022-10-07T05:18:20.145Z,99033.19
2022-10-07T05:20:48.993Z,99029.00
2022-10-07T05:23:19.161Z,99020.41
2022-10-07T05:25:48.059Z,99027.25
2022-10-07T05:28:19.018Z,99023.06
2022-10-07T05:30:47.129Z,99022.19
2022-10-07T05:33:15.408Z,99022.22
2022-10-07T05:35:47.654Z,99012.00
2022-10-07T05:38:15.757Z,99009.47
2022-10-07T05:40:44.136Z,99006.00
2022-10-07T05:43:12.471Z,98997.47
2022-10-07T05:45:43.407Z,99006.03
2022-10-07T05:48:12.753Z,98994.13
2022-10-07T05:50:41.200Z,98993.28
2022-10-07T05:53:09.521Z,99004.41
2022-10-07T05:55:42.097Z,99001.00
2022-10-07T05:58:10.601Z,99001.00
2022-10-07T06:00:42.669Z,98998.44
2022-10-07T06:03:12.550Z,98995.03
2022-10-07T06:05:41.084Z,99001.88
2022-10-07T06:08:09.263Z,98992.50
2022-10-07T06:10:54.869Z,98984.81
2022-10-07T06:13:24.555Z,98998.47
2022-10-07T06:15:52.946Z,99000.19
2022-10-07T06:18:22.694Z,98984.75
2022-10-07T06:20:57.692Z,98994.19
2022-10-07T06:23:26.415Z,98993.34
2022-10-07T06:25:57.052Z,98989.03
2022-10-07T06:28:25.427Z,98993.31
2022-10-07T06:30:54.336Z,98989.03
2022-10-07T06:33:23.948Z,98989.91
2022-10-07T06:35:56.724Z,98990.78
2022-10-07T06:38:27.204Z,98991.63
2022-10-07T06:40:59.250Z,98989.88
2022-10-07T06:43:28.152Z,98990.69
2022-10-07T06:46:00.331Z,98991.53
2022-10-07T06:48:32.313Z,98989.75
2022-10-07T06:51:03.406Z,98987.16
2022-10-07T06:53:32.966Z,98994.84
2022-10-07T06:56:03.553Z,98996.44
2022-10-07T06:58:31.873Z,98987.97
2022-10-07T07:01:00.878Z,98991.38
2022-10-07T07:03:31.287Z,98985.31
2022-10-07T07:06:00.179Z,98989.50
2022-10-07T07:08:31.857Z,98978.41
2022-10-07T07:11:05.806Z,98987.84
2022-10-07T07:13:35.442Z,98987.13
2022-10-07T07:16:03.743Z,98987.06
2022-10-07T07:18:33.208Z,98989.50
2022-10-07T07:21:03.785Z,98993.84
2022-10-07T07:23:32.583Z,98989.53
2022-10-07T07:26:02.064Z,98986.03
2022-10-07T07:28:31.549Z,98989.50
2022-10-07T07:30:59.993Z,98992.09
2022-10-07T07:33:28.827Z,98990.31
2022-10-07T07:35:59.118Z,98988.50
2022-10-07T07:38:27.690Z,98985.84
2022-10-07T07:40:55.877Z,98989.25
2022-10-07T07:43:24.062Z,98984.94
2022-10-07T07:45:52.565Z,98988.31
2022-10-07T07:48:20.624Z,98986.59
2022-10-07T07:50:48.877Z,98989.09
2022-10-07T07:53:18.902Z,98983.31
2022-10-07T07:55:53.894Z,98981.56
2022-10-07T07:58:29.146Z,98979.84
2022-10-07T08:01:02.016Z,98969.53
2022-10-07T08:03:30.254Z,98969.53
2022-10-07T08:06:02.099Z,98979.75
2022-10-07T08:08:32.252Z,98971.97
2022-10-07T08:11:08.310Z,98976.94
2022-10-07T08:13:39.361Z,98963.91
2022-10-07T08:16:08.684Z,98964.72
2022-10-07T08:18:37.646Z,98950.31
2022-10-07T08:21:07.985Z,98955.34
2022-10-07T08:23:38.351Z,98957.66
2022-10-07T08:26:07.791Z,98944.50
2022-10-07T08:28:36.944Z,98952.69
2022-10-07T08:31:07.032Z,98959.22
2022-10-07T08:33:37.281Z,98969.72
2022-10-07T08:36:07.530Z,98955.78
2022-10-07T08:38:39.083Z,98966.13
2022-10-07T08:41:23.817Z,98962.66
2022-10-07T08:43:53.045Z,98954.78
2022-10-07T08:46:28.043Z,98958.78
2022-10-07T08:49:00.161Z,98956.09
2022-10-07T08:51:39.037Z,98963.59
2022-10-07T08:54:15.257Z,98960.91
2022-10-07T08:56:44.038Z,98955.66
2022-10-07T08:59:21.797Z,98941.94
2022-10-07T09:02:04.712Z,98949.38
2022-10-07T09:04:47.244Z,98936.66
2022-10-07T09:07:19.005Z,98933.16
2022-10-07T09:09:54.969Z,98936.25
2022-10-07T09:12:30.581Z,98933.53
2022-10-07T09:15:02.920Z,98935.22
2022-10-07T09:17:36.695Z,98928.09
2022-10-07T09:20:16.596Z,98922.84
2022-10-07T09:22:53.707Z,98919.34
2022-10-07T09:25:25.057Z,98914.19
2022-10-07T09:27:54.679Z,98915.94
2022-10-07T09:30:24.456Z,98912.09
2022-10-07T09:32:55.446Z,98911.59
2022-10-07T09:35:26.091Z,98904.69
2022-10-07T09:38:00.292Z,98899.25
2022-10-07T09:41:00.705Z,98902.56
2022-10-07T09:43:30.410Z,98896.88
2022-10-07T09:46:00.823Z,98892.91
2022-10-07T09:48:33.722Z,98894.09
2022-10-07T09:51:15.924Z,98900.69
2022-10-07T09:53:59.252Z,98886.53
2022-10-07T09:56:41.786Z,98877.03
2022-10-07T09:59:24.768Z,98886.66
2022-10-07T10:01:58.974Z,98888.84
2022-10-07T10:04:32.594Z,98891.66
2022-10-07T10:07:06.407Z,98890.91
2022-10-07T10:09:36.048Z,98888.53
2022-10-07T10:12:17.433Z,98875.97
2022-10-07T10:14:49.669Z,98884.06
2022-10-07T10:17:31.861Z,98878.00
2022-10-07T10:20:31.982Z,98876.03
2022-10-07T10:23:02.298Z,98864.13
2022-10-07T10:26:01.490Z,98863.16
2022-10-07T10:28:45.216Z,98865.44
2022-10-07T10:31:22.665Z,98864.78
2022-10-07T10:34:01.524Z,98864.16
2022-10-07T10:36:36.290Z,98864.50
2022-10-07T10:39:11.800Z,98847.81
2022-10-07T10:41:50.820Z,98851.59
2022-10-07T10:44:33.332Z,98853.56
2022-10-07T10:47:12.497Z,98847.78
2022-10-07T10:49:50.256Z,98841.69
2022-10-07T10:52:32.668Z,98839.13
2022-10-07T10:55:36.912Z,98834.44
2022-10-07T10:58:21.929Z,98826.41
2022-10-07T11:01:01.260Z,98826.75
2022-10-07T11:03:45.412Z,98824.47
2022-10-07T11:06:18.181Z,98822.72
2022-10-07T11:08:47.797Z,98815.13
2022-10-07T11:11:19.449Z,98810.63
2022-10-07T11:13:52.850Z,98809.84
2022-10-07T11:16:26.636Z,98807.06
2022-10-07T11:18:59.237Z,98800.19
2022-10-07T11:21:33.002Z,98801.00
2022-10-07T11:24:05.550Z,98787.66
2022-10-07T11:26:39.561Z,98785.91
2022-10-07T11:29:20.407Z,98780.84
2022-10-07T11:31:57.821Z,98779.59
2022-10-07T11:34:36.453Z,98770.78
2022-10-07T11:37:11.240Z,98778.53
2022-10-07T11:39:40.677Z,98781.25
2022-10-07T11:42:17.276Z,98772.94
2022-10-07T11:44:55.019Z,98774.31
2022-10-07T11:47:31.954Z,98764.41
2022-10-07T11:50:07.883Z,98759.28
2022-10-07T11:52:42.593Z,98755.69
2022-10-07T11:55:19.078Z,98750.81
2022-10-07T11:57:54.696Z,98752.28
2022-10-07T12:00:28.828Z,98743.88
2022-10-07T12:02:59.029Z,98742.66
2022-10-07T12:05:57.709Z,98736.63
2022-10-07T12:08:32.735Z,98727.47
2022-10-07T12:11:43.834Z,98727.56
2022-10-07T12:14:41.353Z,98717.59
2022-10-07T12:17:21.199Z,98703.72
2022-10-07T12:20:31.738Z,98694.91
2022-10-07T12:23:42.915Z,98702.47
2022-10-07T12:26:50.233Z,98693.00
2022-10-07T12:29:40.370Z,98694.69
2022-10-07T12:32:41.413Z,98687.44
2022-10-07T12:35:48.753Z,98682.97
2022-10-07T12:38:24.927Z,98667.38
2022-10-07T12:41:23.332Z,98668.63
2022-10-07T12:43:59.209Z,98656.13
2022-10-07T12:46:32.365Z,98654.75
2022-10-07T12:49:05.295Z,98656.94
2022-10-07T12:51:39.508Z,98647.88
2022-10-07T12:54:14.670Z,98645.91
2022-10-07T12:56:46.320Z,98645.41
2022-10-07T12:59:52.901Z,98642.31
2022-10-07T13:03:04.204Z,98638.03
2022-10-07T13:06:16.107Z,98639.50
2022-10-07T13:09:27.177Z,98631.78
2022-10-07T13:12:12.750Z,98630.22
2022-10-07T13:14:54.367Z,98622.75
2022-10-07T13:17:36.845Z,98618.84
2022-10-07T13:20:20.158Z,98616.97
2022-10-07T13:22:50.547Z,98613.72
2022-10-07T13:25:20.935Z,98612.84
2022-10-07T13:27:55.190Z,98607.53
2022-10-07T13:30:38.767Z,98599.38
2022-10-07T13:33:28.156Z,98594.16
2022-10-07T13:36:16.199Z,98594.22
2022-10-07T13:38:46.408Z,98594.63
2022-10-07T13:41:22.181Z,98576.63
2022-10-07T13:43:54.817Z,98582.06
2022-10-07T13:46:25.642Z,98575.59
2022-10-07T13:48:56.448Z,98569.34
2022-10-07T13:51:30.112Z,98567.09
2022-10-07T13:54:00.525Z,98557.13
2022-10-07T13:56:33.820Z,98547.56
2022-10-07T13:59:06.853Z,98554.22
2022-10-07T14:01:39.895Z,98552.78
2022-10-07T14:04:22.064Z,98550.28
2022-10-07T14:07:00.352Z,98554.28
2022-10-07T14:09:53.938Z,98547.25
2022-10-07T14:12:26.149Z,98541.97
2022-10-07T14:15:01.303Z,98536.00
2022-10-07T14:17:41.151Z,98532.63
2022-10-07T14:20:21.781Z,98531.56
2022-10-07T14:22:53.513Z,98525.31
2022-10-07T14:25:23.426Z,98525.41
2022-10-07T14:28:08.001Z,98533.09
2022-10-07T14:30:57.452Z,98528.78
2022-10-07T14:33:48.394Z,98525.25
2022-10-07T14:36:18.742Z,98507.97
2022-10-07T14:38:48.675Z,98512.16
2022-10-07T14:41:19.979Z,98508.81
2022-10-07T14:43:50.212Z,98500.19
2022-10-07T14:46:24.688Z,98506.31
2022-10-07T14:48:54.278Z,98497.97
2022-10-07T14:51:26.111Z,98486.66
2022-10-07T14:54:02.301Z,98490.56
2022-10-07T14:56:33.314Z,98484.63
2022-10-07T14:59:01.893Z,98480.88
2022-10-07T15:01:31.838Z,98473.84
2022-10-07T15:04:00.390Z,98472.31
2022-10-07T15:06:29.311Z,98478.72
2022-10-07T15:08:57.485Z,98476.81
2022-10-07T15:11:25.585Z,98470.69
2022-10-07T15:13:53.768Z,98470.94
2022-10-07T15:16:23.508Z,98468.47
2022-10-07T15:18:54.176Z,98467.22
2022-10-07T15:21:23.445Z,98454.81
2022-10-07T15:23:53.304Z,98456.25
2022-10-07T15:26:24.481Z,98453.16
2022-10-07T15:28:54.465Z,98449.25
2022-10-07T15:31:24.688Z,98447.25
2022-10-07T15:33:58.088Z,98440.25
2022-10-07T15:36:27.604Z,98445.78
2022-10-07T15:38:56.348Z,98450.28
2022-10-07T15:41:34.037Z,98437.50
2022-10-07T15:44:03.898Z,98436.91
2022-10-07T15:46:32.760Z,98435.53
2022-10-07T15:49:03.952Z,98431.59
2022-10-07T15:51:32.606Z,98430.84
2022-10-07T15:54:01.133Z,98427.09
2022-10-07T15:56:29.709Z,98431.75
2022-10-07T15:58:59.067Z,98434.75
2022-10-07T16:01:28.469Z,98426.56
2022-10-07T16:03:56.759Z,98429.56
2022-10-07T16:06:29.281Z,98423.81
2022-10-07T16:09:00.444Z,98415.53
2022-10-07T16:11:31.838Z,98420.13
2022-10-07T16:14:02.293Z,98414.34
2022-10-07T16:16:32.789Z,98428.44
2022-10-07T16:19:03.887Z,98421.69
2022-10-07T16:21:35.866Z,98412.69
2022-10-07T16:24:06.694Z,98412.28
2022-10-07T16:26:37.499Z,98410.84
2022-10-07T16:29:26.078Z,98412.50
2022-10-07T16:31:58.846Z,98417.94
2022-10-07T16:34:29.205Z,98414.91
2022-10-07T16:36:59.725Z,98415.06
2022-10-07T16:39:28.213Z,98413.63
2022-10-07T16:41:56.755Z,98402.84
2022-10-07T16:44:24.925Z,98400.44
2022-10-07T16:46:56.831Z,98402.94
2022-10-07T16:49:27.944Z,98406.78
2022-10-07T16:51:56.597Z,98414.09
2022-10-07T16:54:28.655Z,98404.41
2022-10-07T16:56:58.572Z,98405.47
2022-10-07T16:59:27.348Z,98405.75
2022-10-07T17:02:00.210Z,98419.84
2022-10-07T17:04:28.540Z,98414.16
2022-10-07T17:06:56.969Z,98414.31
2022-10-07T17:09:26.676Z,98414.53
2022-10-07T17:11:55.612Z,98417.25
2022-10-07T17:14:24.320Z,98420.06
2022-10-07T17:16:54.901Z,98422.84
2022-10-07T17:19:25.018Z,98417.03
2022-10-07T17:21:54.170Z,98418.13
2022-10-07T17:24:23.759Z,98428.59
2022-10-07T17:26:53.793Z,98416.13
2022-10-07T17:29:25.889Z,98421.28
2022-10-07T17:31:55.075Z,98418.06
2022-10-07T17:34:23.741Z,98419.97
2022-10-07T17:36:52.446Z,98417.50
2022-10-07T17:39:20.634Z,98412.56
2022-10-07T17:41:49.717Z,98413.66
2022-10-07T17:44:21.560Z,98424.88
2022-10-07T17:46:50.453Z,98425.00
2022-10-07T17:49:18.916Z,98415.75
2022-10-07T17:51:46.982Z,98423.50
2022-10-07T17:54:15.859Z,98422.66
2022-10-07T17:56:44.653Z,98423.38
2022-10-07T17:59:12.796Z,98417.50
2022-10-07T18:01:45.049Z,98405.84
2022-10-07T18:04:19.928Z,98417.59
2022-10-07T18:06:50.763Z,98416.88
2022-10-07T18:09:19.557Z,98419.50
2022-10-07T18:12:05.634Z,98418.75
2022-10-07T18:14:53.718Z,98424.06
2022-10-07T18:17:25.072Z,98422.38
2022-10-07T18:19:53.526Z,98417.47
2022-10-07T18:22:21.810Z,98428.66
2022-10-07T18:24:51.116Z,98424.50
2022-10-07T18:27:21.843Z,98427.97
2022-10-07T18:29:49.993Z,98424.69
2022-10-07T18:32:18.561Z,98415.31
2022-10-07T18:34:48.159Z,98418.00
2022-10-07T18:37:17.245Z,98420.72
2022-10-07T18:39:45.735Z,98413.94
2022-10-07T18:42:14.176Z,98418.28
2022-10-07T18:44:42.988Z,98414.13
2022-10-07T18:47:11.488Z,98417.53
2022-10-07T18:49:39.631Z,98424.34
2022-10-07T18:52:09.533Z,98414.03
2022-10-07T18:54:37.914Z,98418.38
2022-10-07T18:57:06.340Z,98413.19
2022-10-07T18:59:34.612Z,98418.25
2022-10-07T19:02:03.013Z,98407.94
2022-10-07T19:04:31.719Z,98413.88
2022-10-07T19:07:00.007Z,98419.06
2022-10-07T19:09:30.590Z,98417.53
2022-10-07T19:11:58.803Z,98423.53
2022-10-07T19:14:26.368Z,98416.63
2022-10-07T19:16:54.852Z,98412.22
2022-10-07T19:19:24.725Z,98414.03
2022-10-07T19:21:55.317Z,98410.78
2022-10-07T19:24:44.833Z,98415.19
2022-10-07T19:27:14.771Z,98423.81
2022-10-07T19:29:43.021Z,98418.66
2022-10-07T19:32:11.548Z,98424.75
2022-10-07T19:34:39.865Z,98418.75
2022-10-07T19:37:08.708Z,98423.00
2022-10-07T19:39:37.293Z,98422.38
2022-10-07T19:42:05.885Z,98429.50
2022-10-07T19:44:38.500Z,98436.47
2022-10-07T19:47:06.974Z,98434.06
2022-10-07T19:49:35.145Z,98432.47
2022-10-07T19:52:03.423Z,98434.47
2022-10-07T19:54:36.062Z,98431.97
2022-10-07T19:57:04.333Z,98428.41
2022-10-07T19:59:32.661Z,98421.66
2022-10-07T20:02:02.397Z,98428.25
2022-10-07T20:04:31.091Z,98418.03
2022-10-07T20:07:00.167Z,98419.03
2022-10-07T20:09:28.671Z,98417.28
2022-10-07T20:11:57.130Z,98408.78
2022-10-07T20:14:25.830Z,98423.41
2022-10-07T20:16:56.519Z,98412.34
2022-10-07T20:19:26.652Z,98409.00
2022-10-07T20:21:54.928Z,98412.47
2022-10-07T20:24:23.135Z,98417.63
2022-10-07T20:26:51.869Z,98421.06
2022-10-07T20:29:25.156Z,98420.22
2022-10-07T20:31:54.482Z,98424.53
2022-10-07T20:34:26.957Z,98425.50
2022-10-07T20:36:57.667Z,98418.53
2022-10-07T20:39:43.624Z,98420.13
2022-10-07T20:42:25.962Z,98416.41
2022-10-07T20:44:55.070Z,98412.22
2022-10-07T20:47:26.385Z,98407.94
2022-10-07T20:49:57.247Z,98405.44
2022-10-07T20:52:29.410Z,98396.03
2022-10-07T20:54:58.082Z,98396.81
2022-10-07T20:57:29.030Z,98394.44
2022-10-07T20:59:57.517Z,98396.09
2022-10-07T21:02:29.377Z,98385.94
2022-10-07T21:04:59.406Z,98385.19
2022-10-07T21:07:29.417Z,98388.69
2022-10-07T21:09:58.294Z,98372.44
2022-10-07T21:12:26.798Z,98380.19
2022-10-07T21:14:56.701Z,98371.63
2022-10-07T21:17:25.218Z,98367.34
2022-10-07T21:19:53.586Z,98369.03
2022-10-07T21:22:21.843Z,98380.38
2022-10-07T21:24:51.972Z,98384.78
2022-10-07T21:27:20.696Z,98381.41
2022-10-07T21:29:49.191Z,98380.66
2022-10-07T21:32:18.571Z,98374.78
2022-10-07T21:34:47.075Z,98371.41
2022-10-07T21:37:15.415Z,98376.53
2022-10-07T21:39:43.737Z,98373.06
2022-10-07T21:42:13.875Z,98361.94
2022-10-07T21:44:44.489Z,98364.50
2022-10-07T21:47:13.048Z,98361.13
2022-10-07T21:49:41.381Z,98361.97
2022-10-07T21:52:09.819Z,98358.56
2022-10-07T21:54:38.543Z,98354.31
2022-10-07T21:57:06.949Z,98351.69
2022-10-07T21:59:37.031Z,98343.03
2022-10-07T22:02:06.227Z,98350.72
2022-10-07T22:04:34.704Z,98354.97
2022-10-07T22:07:20.420Z,98346.19
2022-10-07T22:09:48.679Z,98354.63
2022-10-07T22:12:18.631Z,98356.31
2022-10-07T22:14:48.504Z,98343.50
2022-10-07T22:17:17.016Z,98355.53
2022-10-07T22:19:45.376Z,98352.97
2022-10-07T22:22:14.206Z,98348.63
2022-10-07T22:24:42.587Z,98350.16
2022-10-07T22:27:11.029Z,98356.97
2022-10-07T22:29:40.063Z,98346.63
2022-10-07T22:32:09.846Z,98348.19
2022-10-07T22:34:55.524Z,98341.25
2022-10-07T22:37:23.901Z,98348.16
2022-10-07T22:39:52.300Z,98348.06
2022-10-07T22:42:20.677Z,98336.94
2022-10-07T22:44:49.090Z,98333.53
2022-10-07T22:47:19.815Z,98333.59
2022-10-07T22:49:48.689Z,98338.59
2022-10-07T22:52:17.012Z,98321.25
2022-10-07T22:54:45.590Z,98330.72
2022-10-07T22:57:13.872Z,98313.25
2022-10-07T22:59:42.276Z,98321.78
2022-10-07T23:02:10.794Z,98337.31
2022-10-07T23:04:40.862Z,98305.13
2022-10-07T23:07:11.071Z,98317.75
2022-10-07T23:09:39.364Z,98322.03
2022-10-07T23:12:07.750Z,98318.38
2022-10-07T23:14:36.105Z,98323.53
2022-10-07T23:17:04.905Z,98316.63
2022-10-07T23:19:33.214Z,98313.16
2022-10-07T23:22:03.229Z,98311.53
2022-10-07T23:24:31.613Z,98307.31
2022-10-07T23:26:59.953Z,98307.50
2022-10-07T23:29:28.617Z,98305.97
2022-10-07T23:31:56.961Z,98296.75
2022-10-07T23:34:25.477Z,98300.31
2022-10-07T23:36:55.442Z,98302.00
2022-10-07T23:39:25.886Z,98303.91
2022-10-07T23:41:54.182Z,98303.81
2022-10-07T23:44:24.113Z,98297.88
2022-10-07T23:46:52.908Z,98298.75
2022-10-07T23:49:21.443Z,98286.69
2022-10-07T23:51:51.410Z,98298.59
2022-10-07T23:54:20.481Z,98295.19
2022-10-07T23:56:50.587Z,98285.78
2022-10-07T23:59:19.622Z,98285.00
